sensor_id;sensor_type;location;lat;lon;timestamp;pressure;altitude;pressure_sealevel;temperature;humidity
75699;BME280;64313;51.018;13.742;2023-01-09T00:01:52;98284.03;;;5.55;78.98
75699;BME280;64313;51.018;13.742;2023-01-09T00:04:17;98280.97;;;5.58;78.99
75699;BME280;64313;51.018;13.742;2023-01-09T00:06:43;98274.88;;;5.57;78.85
75699;BME280;64313;51.018;13.742;2023-01-09T00:09:11;98271.00;;;5.60;78.75
75699;BME280;64313;51.018;13.742;2023-01-09T00:11:36;98265.69;;;5.60;78.76
75699;BME280;64313;51.018;13.742;2023-01-09T00:14:03;98263.44;;;5.57;78.84
75699;BME280;64313;51.018;13.742;2023-01-09T00:16:28;98263.84;;;5.60;78.63
75699;BME280;64313;51.018;13.742;2023-01-09T00:18:54;98259.56;;;5.59;78.83
75699;BME280;64313;51.018;13.742;2023-01-09T00:21:19;98261.38;;;5.59;79.08
75699;BME280;64313;51.018;13.742;2023-01-09T00:23:46;98259.78;;;5.58;78.93
75699;BME280;64313;51.018;13.742;2023-01-09T00:26:16;98260.59;;;5.58;79.14
75699;BME280;64313;51.018;13.742;2023-01-09T00:28:42;98253.44;;;5.59;78.93
75699;BME280;64313;51.018;13.742;2023-01-09T00:31:07;98235.72;;;5.59;78.87
75699;BME280;64313;51.018;13.742;2023-01-09T00:33:36;98239.19;;;5.60;78.76
75699;BME280;64313;51.018;13.742;2023-01-09T00:36:02;98233.88;;;5.60;78.63
75699;BME280;64313;51.018;13.742;2023-01-09T00:38:27;98236.53;;;5.60;78.92
75699;BME280;64313;51.018;13.742;2023-01-09T00:40:53;98237.53;;;5.59;79.68
75699;BME280;64313;51.018;13.742;2023-01-09T00:43:21;98233.47;;;5.56;79.04
75699;BME280;64313;51.018;13.742;2023-01-09T00:45:47;98227.16;;;5.57;78.80
75699;BME280;64313;51.018;13.742;2023-01-09T00:48:14;98230.81;;;5.56;78.97
75699;BME280;64313;51.018;13.742;2023-01-09T00:50:41;98224.69;;;5.56;78.85
75699;BME280;64313;51.018;13.742;2023-01-09T00:53:12;98219.41;;;5.56;78.82
75699;BME280;64313;51.018;13.742;2023-01-09T00:55:39;98215.31;;;5.53;79.26
75699;BME280;64313;51.018;13.742;2023-01-09T00:58:04;98218.16;;;5.52;78.81
75699;BME280;64313;51.018;13.742;2023-01-09T01:00:30;98209.41;;;5.51;78.83
75699;BME280;64313;51.018;13.742;2023-01-09T01:02:55;98205.31;;;5.49;78.84
75699;BME280;64313;51.018;13.742;2023-01-09T01:05:20;98202.06;;;5.47;78.78
75699;BME280;64313;51.018;13.742;2023-01-09T01:08:15;98199.03;;;5.50;78.58
75699;BME280;64313;51.018;13.742;2023-01-09T01:10:41;98186.78;;;5.49;78.87
75699;BME280;64313;51.018;13.742;2023-01-09T01:13:07;98189.22;;;5.50;78.62
75699;BME280;64313;51.018;13.742;2023-01-09T01:15:33;98185.97;;;5.48;78.84
75699;BME280;64313;51.018;13.742;2023-01-09T01:17:58;98183.13;;;5.50;78.56
75699;BME280;64313;51.018;13.742;2023-01-09T01:20:23;98183.31;;;5.48;78.67
75699;BME280;64313;51.018;13.742;2023-01-09T01:22:49;98180.06;;;5.46;78.55
75699;BME280;64313;51.018;13.742;2023-01-09T01:25:15;98173.13;;;5.45;78.52
75699;BME280;64313;51.018;13.742;2023-01-09T01:27:43;98170.69;;;5.43;78.79
75699;BME280;64313;51.018;13.742;2023-01-09T01:30:09;98171.28;;;5.46;78.56
75699;BME280;64313;51.018;13.742;2023-01-09T01:32:35;98165.19;;;5.45;78.53
75699;BME280;64313;51.018;13.742;2023-01-09T01:35:01;98159.28;;;5.43;78.83
75699;BME280;64313;51.018;13.742;2023-01-09T01:37:26;98171.72;;;5.42;78.97
75699;BME280;64313;51.018;13.742;2023-01-09T01:39:51;98158.88;;;5.39;78.70
75699;BME280;64313;51.018;13.742;2023-01-09T01:42:17;98158.03;;;5.39;78.92
75699;BME280;64313;51.018;13.742;2023-01-09T01:50:23;98152.16;;;5.37;78.78
75699;BME280;64313;51.018;13.742;2023-01-09T01:53:02;98150.31;;;5.37;78.86
75699;BME280;64313;51.018;13.742;2023-01-09T01:55:29;98131.97;;;5.36;78.60
75699;BME280;64313;51.018;13.742;2023-01-09T01:57:56;98136.44;;;5.35;78.80
75699;BME280;64313;51.018;13.742;2023-01-09T02:00:28;98131.97;;;5.36;78.80
75699;BME280;64313;51.018;13.742;2023-01-09T02:02:54;98123.19;;;5.35;78.78
75699;BME280;64313;51.018;13.742;2023-01-09T02:05:19;98121.59;;;5.34;78.81
75699;BME280;64313;51.018;13.742;2023-01-09T02:07:45;98115.44;;;5.34;79.04
75699;BME280;64313;51.018;13.742;2023-01-09T02:10:10;98118.09;;;5.34;78.65
75699;BME280;64313;51.018;13.742;2023-01-09T02:12:35;98115.66;;;5.32;78.95
75699;BME280;64313;51.018;13.742;2023-01-09T02:15:07;98108.34;;;5.34;78.81
75699;BME280;64313;51.018;13.742;2023-01-09T02:20:42;98094.06;;;5.35;78.68
75699;BME280;64313;51.018;13.742;2023-01-09T02:23:18;98094.25;;;5.34;78.84
75699;BME280;64313;51.018;13.742;2023-01-09T02:31:31;98075.69;;;5.34;78.90
75699;BME280;64313;51.018;13.742;2023-01-09T02:34:08;98084.50;;;5.34;78.93
75699;BME280;64313;51.018;13.742;2023-01-09T02:39:25;98076.75;;;5.39;78.72
75699;BME280;64313;51.018;13.742;2023-01-09T02:42:12;98066.75;;;5.35;78.96
75699;BME280;64313;51.018;13.742;2023-01-09T02:44:39;98067.56;;;5.35;79.00
75699;BME280;64313;51.018;13.742;2023-01-09T02:49:47;98067.38;;;5.37;78.45
75699;BME280;64313;51.018;13.742;2023-01-09T03:01:00;98076.75;;;5.39;79.28
75699;BME280;64313;51.018;13.742;2023-01-09T03:06:45;98075.91;;;5.39;79.36
75699;BME280;64313;51.018;13.742;2023-01-09T03:09:15;98080.38;;;5.38;79.59
75699;BME280;64313;51.018;13.742;2023-01-09T03:11:49;98080.38;;;5.38;79.23
75699;BME280;64313;51.018;13.742;2023-01-09T03:14:20;98077.97;;;5.37;79.38
75699;BME280;64313;51.018;13.742;2023-01-09T03:16:51;98077.75;;;5.38;79.46
75699;BME280;64313;51.018;13.742;2023-01-09T03:19:21;98077.75;;;5.38;79.93
75699;BME280;64313;51.018;13.742;2023-01-09T03:21:48;98065.72;;;5.36;79.85
75699;BME280;64313;51.018;13.742;2023-01-09T03:24:14;98072.88;;;5.35;79.86
75699;BME280;64313;51.018;13.742;2023-01-09T03:26:39;98070.22;;;5.35;80.26
75699;BME280;64313;51.018;13.742;2023-01-09T03:29:04;98061.22;;;5.36;80.80
75699;BME280;64313;51.018;13.742;2023-01-09T03:31:30;98062.88;;;5.37;80.32
75699;BME280;64313;51.018;13.742;2023-01-09T03:33:55;98058.81;;;5.35;80.52
75699;BME280;64313;51.018;13.742;2023-01-09T03:36:21;98056.97;;;5.35;80.67
75699;BME280;64313;51.018;13.742;2023-01-09T03:38:46;98055.34;;;5.34;80.29
75699;BME280;64313;51.018;13.742;2023-01-09T03:41:12;98053.50;;;5.35;80.40
75699;BME280;64313;51.018;13.742;2023-01-09T03:43:37;98041.50;;;5.32;80.99
75699;BME280;64313;51.018;13.742;2023-01-09T03:46:02;98043.09;;;5.33;80.52
75699;BME280;64313;51.018;13.742;2023-01-09T03:48:28;98030.91;;;5.32;80.72
75699;BME280;64313;51.018;13.742;2023-01-09T03:50:54;98033.53;;;5.32;80.91
75699;BME280;64313;51.018;13.742;2023-01-09T03:53:21;98032.50;;;5.33;80.54
75699;BME280;64313;51.018;13.742;2023-01-09T03:55:49;98027.44;;;5.32;80.79
75699;BME280;64313;51.018;13.742;2023-01-09T03:58:15;98016.41;;;5.28;80.71
75699;BME280;64313;51.018;13.742;2023-01-09T04:00:41;98021.72;;;5.28;80.88
75699;BME280;64313;51.018;13.742;2023-01-09T04:03:08;98013.16;;;5.26;80.92
75699;BME280;64313;51.018;13.742;2023-01-09T04:05:33;98019.50;;;5.25;81.28
75699;BME280;64313;51.018;13.742;2023-01-09T04:07:59;98011.75;;;5.24;81.17
75699;BME280;64313;51.018;13.742;2023-01-09T04:10:24;98015.41;;;5.23;81.07
75699;BME280;64313;51.018;13.742;2023-01-09T04:12:49;98014.63;;;5.22;81.61
75699;BME280;64313;51.018;13.742;2023-01-09T04:15:15;98008.91;;;5.25;80.96
75699;BME280;64313;51.018;13.742;2023-01-09T04:17:40;98011.75;;;5.24;81.13
75699;BME280;64313;51.018;13.742;2023-01-09T04:20:05;98011.13;;;5.21;81.73
75699;BME280;64313;51.018;13.742;2023-01-09T04:22:31;98008.69;;;5.20;81.56
75699;BME280;64313;51.018;13.742;2023-01-09T04:24:56;98002.59;;;5.19;81.67
75699;BME280;64313;51.018;13.742;2023-01-09T04:27:21;98003.59;;;5.18;81.55
75699;BME280;64313;51.018;13.742;2023-01-09T04:29:46;97997.50;;;5.18;81.85
75699;BME280;64313;51.018;13.742;2023-01-09T04:32:12;98003.59;;;5.18;81.62
75699;BME280;64313;51.018;13.742;2023-01-09T04:34:37;97992.41;;;5.16;81.29
75699;BME280;64313;51.018;13.742;2023-01-09T04:37:02;98001.38;;;5.15;81.49
75699;BME280;64313;51.018;13.742;2023-01-09T04:39:28;98003.81;;;5.17;81.69
75699;BME280;64313;51.018;13.742;2023-01-09T04:41:53;98003.81;;;5.17;81.22
75699;BME280;64313;51.018;13.742;2023-01-09T04:44:20;97995.03;;;5.16;81.40
75699;BME280;64313;51.018;13.742;2023-01-09T04:46:46;97993.00;;;5.18;81.26
75699;BME280;64313;51.018;13.742;2023-01-09T04:49:12;97993.22;;;5.17;81.22
75699;BME280;64313;51.018;13.742;2023-01-09T04:51:37;97995.66;;;5.18;81.32
75699;BME280;64313;51.018;13.742;2023-01-09T04:54:03;97990.34;;;5.18;81.25
75699;BME280;64313;51.018;13.742;2023-01-09T04:56:28;97989.75;;;5.16;81.29
75699;BME280;64313;51.018;13.742;2023-01-09T04:58:53;97985.47;;;5.15;81.32
75699;BME280;64313;51.018;13.742;2023-01-09T05:01:18;97990.16;;;5.13;81.11
75699;BME280;64313;51.018;13.742;2023-01-09T05:03:44;97993.63;;;5.14;81.71
75699;BME280;64313;51.018;13.742;2023-01-09T05:06:09;97983.88;;;5.14;81.30
75699;BME280;64313;51.018;13.742;2023-01-09T05:08:35;97983.03;;;5.14;81.17
75699;BME280;64313;51.018;13.742;2023-01-09T05:11:00;97985.09;;;5.12;81.35
75699;BME280;64313;51.018;13.742;2023-01-09T05:13:25;97978.97;;;5.11;81.38
75699;BME280;64313;51.018;13.742;2023-01-09T05:15:51;97974.91;;;5.09;81.35
75699;BME280;64313;51.018;13.742;2023-01-09T05:18:16;97984.47;;;5.10;81.23
75699;BME280;64313;51.018;13.742;2023-01-09T05:20:41;97986.91;;;5.11;81.12
75699;BME280;64313;51.018;13.742;2023-01-09T05:23:06;97992.44;;;5.10;81.60
75699;BME280;64313;51.018;13.742;2023-01-09T05:25:32;97984.69;;;5.08;81.21
75699;BME280;64313;51.018;13.742;2023-01-09T05:27:57;97983.88;;;5.08;81.33
75699;BME280;64313;51.018;13.742;2023-01-09T05:30:23;97983.88;;;5.08;81.22
75699;BME280;64313;51.018;13.742;2023-01-09T05:32:49;97979.19;;;5.10;81.31
75699;BME280;64313;51.018;13.742;2023-01-09T05:35:14;97970.22;;;5.11;81.23
75699;BME280;64313;51.018;13.742;2023-01-09T05:37:39;97977.53;;;5.09;81.31
75699;BME280;64313;51.018;13.742;2023-01-09T05:40:05;97976.53;;;5.10;80.94
75699;BME280;64313;51.018;13.742;2023-01-09T05:42:31;97961.66;;;5.09;80.92
75699;BME280;64313;51.018;13.742;2023-01-09T05:44:56;97966.38;;;5.07;81.02
75699;BME280;64313;51.018;13.742;2023-01-09T05:47:21;97962.88;;;5.06;81.21
75699;BME280;64313;51.018;13.742;2023-01-09T05:49:46;97973.69;;;5.05;81.07
75699;BME280;64313;51.018;13.742;2023-01-09T05:52:12;97980.84;;;5.04;81.13
75699;BME280;64313;51.018;13.742;2023-01-09T05:54:37;97981.03;;;5.03;81.12
75699;BME280;64313;51.018;13.742;2023-01-09T05:57:02;97973.28;;;5.01;80.86
75699;BME280;64313;51.018;13.742;2023-01-09T05:59:27;97971.47;;;5.02;80.83
75699;BME280;64313;51.018;13.742;2023-01-09T06:01:53;97972.47;;;5.01;81.15
75699;BME280;64313;51.018;13.742;2023-01-09T06:04:18;97965.56;;;4.99;80.63
75699;BME280;64313;51.018;13.742;2023-01-09T06:06:43;97963.91;;;4.98;80.91
75699;BME280;64313;51.018;13.742;2023-01-09T06:09:09;97959.47;;;4.99;80.72
75699;BME280;64313;51.018;13.742;2023-01-09T06:11:34;97959.66;;;4.97;80.56
75699;BME280;64313;51.018;13.742;2023-01-09T06:14:00;97957.44;;;4.94;81.07
75699;BME280;64313;51.018;13.742;2023-01-09T06:16:25;97968.81;;;4.95;81.10
75699;BME280;64313;51.018;13.742;2023-01-09T06:18:51;97965.38;;;4.94;80.99
75699;BME280;64313;51.018;13.742;2023-01-09T06:21:16;97957.44;;;4.94;80.94
75699;BME280;64313;51.018;13.742;2023-01-09T06:23:41;97963.53;;;4.95;80.79
75699;BME280;64313;51.018;13.742;2023-01-09T06:26:06;97964.56;;;4.94;80.98
75699;BME280;64313;51.018;13.742;2023-01-09T06:28:32;97965.38;;;4.94;80.72
75699;BME280;64313;51.018;13.742;2023-01-09T06:30:57;97968.81;;;4.95;80.66
75699;BME280;64313;51.018;13.742;2023-01-09T06:33:22;97960.06;;;4.94;80.85
75699;BME280;64313;51.018;13.742;2023-01-09T06:35:48;97974.94;;;4.95;80.75
75699;BME280;64313;51.018;13.742;2023-01-09T06:38:13;97970.44;;;4.96;80.73
75699;BME280;64313;51.018;13.742;2023-01-09T06:40:38;97970.25;;;4.97;80.67
75699;BME280;64313;51.018;13.742;2023-01-09T06:43:03;97981.88;;;4.96;80.58
75699;BME280;64313;51.018;13.742;2023-01-09T06:45:29;97992.22;;;4.98;80.42
75699;BME280;64313;51.018;13.742;2023-01-09T06:47:54;97990.19;;;5.00;80.21
75699;BME280;64313;51.018;13.742;2023-01-09T06:50:20;97990.00;;;5.02;80.29
75699;BME280;64313;51.018;13.742;2023-01-09T06:52:45;97986.31;;;5.03;80.01
75699;BME280;64313;51.018;13.742;2023-01-09T06:55:10;97991.44;;;5.04;79.93
75699;BME280;64313;51.018;13.742;2023-01-09T06:57:35;97994.28;;;5.03;80.02
75699;BME280;64313;51.018;13.742;2023-01-09T07:00:01;97994.88;;;5.05;80.08
75699;BME280;64313;51.018;13.742;2023-01-09T07:02:27;97996.50;;;5.06;80.05
75699;BME280;64313;51.018;13.742;2023-01-09T07:04:52;98007.91;;;5.06;79.82
75699;BME280;64313;51.018;13.742;2023-01-09T07:07:17;97998.94;;;5.07;79.61
75699;BME280;64313;51.018;13.742;2023-01-09T07:09:44;97996.91;;;5.09;79.95
75699;BME280;64313;51.018;13.742;2023-01-09T07:12:09;98000.38;;;5.10;79.84
75699;BME280;64313;51.018;13.742;2023-01-09T07:14:34;97996.50;;;5.12;79.51
75699;BME280;64313;51.018;13.742;2023-01-09T07:16:59;98004.22;;;5.14;79.53
75699;BME280;64313;51.018;13.742;2023-01-09T07:19:25;98001.56;;;5.14;79.41
75699;BME280;64313;51.018;13.742;2023-01-09T07:21:50;98000.56;;;5.15;79.23
75699;BME280;64313;51.018;13.742;2023-01-09T07:24:15;97999.34;;;5.17;79.51
75699;BME280;64313;51.018;13.742;2023-01-09T07:26:40;97996.69;;;5.17;79.44
75699;BME280;64313;51.018;13.742;2023-01-09T07:29:06;97996.06;;;5.15;79.57
75699;BME280;64313;51.018;13.742;2023-01-09T07:31:31;97995.88;;;5.17;79.41
75699;BME280;64313;51.018;13.742;2023-01-09T07:33:56;97994.25;;;5.16;79.64
75699;BME280;64313;51.018;13.742;2023-01-09T07:36:22;97999.53;;;5.16;79.41
75699;BME280;64313;51.018;13.742;2023-01-09T07:38:47;98003.81;;;5.17;79.70
75699;BME280;64313;51.018;13.742;2023-01-09T07:41:13;97991.59;;;5.16;79.38
75699;BME280;64313;51.018;13.742;2023-01-09T07:43:38;97985.28;;;5.17;79.40
75699;BME280;64313;51.018;13.742;2023-01-09T07:46:04;97991.38;;;5.17;79.35
75699;BME280;64313;51.018;13.742;2023-01-09T07:48:29;98000.34;;;5.16;79.43
75699;BME280;64313;51.018;13.742;2023-01-09T07:50:54;98013.38;;;5.18;79.03
75699;BME280;64313;51.018;13.742;2023-01-09T07:53:19;98021.34;;;5.18;79.36
75699;BME280;64313;51.018;13.742;2023-01-09T07:55:45;98013.81;;;5.15;79.63
75699;BME280;64313;51.018;13.742;2023-01-09T07:58:10;98015.66;;;5.14;79.79
75699;BME280;64313;51.018;13.742;2023-01-09T08:00:35;98014.63;;;5.15;79.75
75699;BME280;64313;51.018;13.742;2023-01-09T08:03:01;98022.75;;;5.14;79.70
75699;BME280;64313;51.018;13.742;2023-01-09T08:05:26;98023.38;;;5.16;79.39
75699;BME280;64313;51.018;13.742;2023-01-09T08:07:51;98030.91;;;5.19;79.38
75699;BME280;64313;51.018;13.742;2023-01-09T08:10:17;98021.53;;;5.16;79.56
75699;BME280;64313;51.018;13.742;2023-01-09T08:12:47;98032.34;;;5.15;79.37
75699;BME280;64313;51.018;13.742;2023-01-09T08:15:12;98026.03;;;5.16;79.77
75699;BME280;64313;51.018;13.742;2023-01-09T08:17:39;98032.34;;;5.15;79.76
75699;BME280;64313;51.018;13.742;2023-01-09T08:20:05;98030.69;;;5.14;80.04
75699;BME280;64313;51.018;13.742;2023-01-09T08:22:30;98025.22;;;5.15;79.79
75699;BME280;64313;51.018;13.742;2023-01-09T08:24:55;98038.25;;;5.17;79.94
75699;BME280;64313;51.018;13.742;2023-01-09T08:27:20;98033.78;;;5.17;79.62
75699;BME280;64313;51.018;13.742;2023-01-09T08:29:46;98024.78;;;5.18;79.95
75699;BME280;64313;51.018;13.742;2023-01-09T08:32:11;98030.69;;;5.20;79.95
75699;BME280;64313;51.018;13.742;2023-01-09T08:34:36;98036.41;;;5.24;80.21
75699;BME280;64313;51.018;13.742;2023-01-09T08:37:02;98046.59;;;5.27;80.14
75699;BME280;64313;51.018;13.742;2023-01-09T08:39:27;98031.69;;;5.26;79.91
75699;BME280;64313;51.018;13.742;2023-01-09T08:41:52;98035.38;;;5.25;80.53
75699;BME280;64313;51.018;13.742;2023-01-09T08:44:36;98044.13;;;5.26;80.07
75699;BME280;64313;51.018;13.742;2023-01-09T08:47:21;98033.97;;;5.29;80.20
75699;BME280;64313;51.018;13.742;2023-01-09T08:49:47;98044.13;;;5.32;80.96
75699;BME280;64313;51.018;13.742;2023-01-09T08:52:12;98047.41;;;5.34;80.87
75699;BME280;64313;51.018;13.742;2023-01-09T08:54:38;98054.31;;;5.42;80.67
75699;BME280;64313;51.018;13.742;2023-01-09T08:57:05;98053.28;;;5.50;81.26
75699;BME280;64313;51.018;13.742;2023-01-09T08:59:30;98057.13;;;5.60;81.13
75699;BME280;64313;51.018;13.742;2023-01-09T09:01:55;98056.69;;;5.70;81.20
75699;BME280;64313;51.018;13.742;2023-01-09T09:04:22;98053.78;;;5.78;80.92
75699;BME280;64313;51.018;13.742;2023-01-09T09:06:47;98047.25;;;5.88;80.84
75699;BME280;64313;51.018;13.742;2023-01-09T09:09:12;98045.97;;;6.03;80.95
75699;BME280;64313;51.018;13.742;2023-01-09T09:11:38;98044.91;;;6.11;80.44
75699;BME280;64313;51.018;13.742;2023-01-09T09:14:03;98057.09;;;6.25;80.33
75699;BME280;64313;51.018;13.742;2023-01-09T09:16:49;98069.91;;;6.35;79.93
75699;BME280;64313;51.018;13.742;2023-01-09T09:19:14;98063.34;;;6.38;80.29
75699;BME280;64313;51.018;13.742;2023-01-09T09:21:39;98067.16;;;6.48;80.08
75699;BME280;64313;51.018;13.742;2023-01-09T09:24:04;98068.34;;;6.53;79.89
75699;BME280;64313;51.018;13.742;2023-01-09T09:26:30;98079.56;;;6.55;79.66
75699;BME280;64313;51.018;13.742;2023-01-09T09:28:55;98081.59;;;6.59;79.98
75699;BME280;64313;51.018;13.742;2023-01-09T09:31:20;98089.72;;;6.64;79.89
75699;BME280;64313;51.018;13.742;2023-01-09T09:33:45;98081.50;;;6.72;80.25
75699;BME280;64313;51.018;13.742;2023-01-09T09:36:11;98084.75;;;6.75;80.72
75699;BME280;64313;51.018;13.742;2023-01-09T09:38:36;98088.63;;;6.79;80.96
75699;BME280;64313;51.018;13.742;2023-01-09T09:41:10;98088.78;;;6.84;81.25
75699;BME280;64313;51.018;13.742;2023-01-09T09:44:24;98092.25;;;6.84;80.33
75699;BME280;64313;51.018;13.742;2023-01-09T09:50:34;98086.28;;;6.89;80.82
75699;BME280;64313;51.018;13.742;2023-01-09T09:53:14;98089.56;;;6.91;80.32
75699;BME280;64313;51.018;13.742;2023-01-09T09:55:42;98090.16;;;6.93;80.95
75699;BME280;64313;51.018;13.742;2023-01-09T09:58:20;98097.69;;;6.96;80.45
75699;BME280;64313;51.018;13.742;2023-01-09T10:00:50;98100.94;;;6.98;80.63
75699;BME280;64313;51.018;13.742;2023-01-09T10:03:34;98098.66;;;7.02;80.42
75699;BME280;64313;51.018;13.742;2023-01-09T10:06:12;98103.34;;;7.06;80.32
75699;BME280;64313;51.018;13.742;2023-01-09T10:11:46;98098.78;;;7.13;80.27
75699;BME280;64313;51.018;13.742;2023-01-09T10:14:15;98103.22;;;7.20;79.86
75699;BME280;64313;51.018;13.742;2023-01-09T10:19:47;98116.22;;;7.28;80.19
75699;BME280;64313;51.018;13.742;2023-01-09T10:25:15;98120.69;;;7.34;80.34
75699;BME280;64313;51.018;13.742;2023-01-09T10:30:49;98143.97;;;7.39;80.27
75699;BME280;64313;51.018;13.742;2023-01-09T10:35:52;98146.78;;;7.44;80.52
75699;BME280;64313;51.018;13.742;2023-01-09T10:38:31;98143.06;;;7.45;81.62
75699;BME280;64313;51.018;13.742;2023-01-09T10:41:06;98151.25;;;7.43;80.57
75699;BME280;64313;51.018;13.742;2023-01-09T10:43:42;98160.06;;;7.44;81.02
75699;BME280;64313;51.018;13.742;2023-01-09T10:46:14;98164.34;;;7.45;81.12
75699;BME280;64313;51.018;13.742;2023-01-09T10:48:44;98170.91;;;7.42;80.97
75699;BME280;64313;51.018;13.742;2023-01-09T10:51:19;98195.63;;;7.43;81.39
75699;BME280;64313;51.018;13.742;2023-01-09T10:53:48;98175.41;;;7.42;82.97
75699;BME280;64313;51.018;13.742;2023-01-09T10:56:21;98197.94;;;7.39;81.23
75699;BME280;64313;51.018;13.742;2023-01-09T10:58:47;98199.19;;;7.36;81.02
75699;BME280;64313;51.018;13.742;2023-01-09T11:01:12;98193.47;;;7.33;80.87
75699;BME280;64313;51.018;13.742;2023-01-09T11:03:38;98199.66;;;7.27;81.11
75699;BME280;64313;51.018;13.742;2023-01-09T11:06:16;98202.94;;;7.22;81.45
75699;BME280;64313;51.018;13.742;2023-01-09T11:08:44;98200.94;;;7.18;82.09
75699;BME280;64313;51.018;13.742;2023-01-09T11:11:30;98204.63;;;7.17;81.54
75699;BME280;64313;51.018;13.742;2023-01-09T11:14:05;98199.31;;;7.17;81.52
75699;BME280;64313;51.018;13.742;2023-01-09T11:16:31;98211.56;;;7.18;81.50
75699;BME280;64313;51.018;13.742;2023-01-09T11:18:57;98202.56;;;7.19;81.12
75699;BME280;64313;51.018;13.742;2023-01-09T11:23:52;98204.19;;;7.20;81.03
75699;BME280;64313;51.018;13.742;2023-01-09T11:26:26;98211.16;;;7.21;80.67
75699;BME280;64313;51.018;13.742;2023-01-09T11:29:12;98211.72;;;7.23;80.97
75699;BME280;64313;51.018;13.742;2023-01-09T11:31:42;98216.03;;;7.24;80.82
75699;BME280;64313;51.018;13.742;2023-01-09T11:34:16;98224.00;;;7.24;80.26
75699;BME280;64313;51.018;13.742;2023-01-09T11:36:42;98213.38;;;7.24;80.34
75699;BME280;64313;51.018;13.742;2023-01-09T11:39:20;98215.00;;;7.25;79.88
75699;BME280;64313;51.018;13.742;2023-01-09T11:41:52;98218.47;;;7.25;79.24
75699;BME280;64313;51.018;13.742;2023-01-09T11:44:19;98213.31;;;7.30;79.32
75699;BME280;64313;51.018;13.742;2023-01-09T11:46:44;98209.84;;;7.30;78.43
75699;BME280;64313;51.018;13.742;2023-01-09T11:51:40;98210.44;;;7.32;78.06
75699;BME280;64313;51.018;13.742;2023-01-09T11:54:27;98216.56;;;7.32;78.12
75699;BME280;64313;51.018;13.742;2023-01-09T11:56:54;98219.22;;;7.32;77.71
75699;BME280;64313;51.018;13.742;2023-01-09T11:59:23;98215.75;;;7.32;77.30
75699;BME280;64313;51.018;13.742;2023-01-09T12:01:56;98205.75;;;7.34;77.80
75699;BME280;64313;51.018;13.742;2023-01-09T12:04:43;98206.34;;;7.36;77.37
75699;BME280;64313;51.018;13.742;2023-01-09T12:07:32;98203.25;;;7.39;77.30
75699;BME280;64313;51.018;13.742;2023-01-09T12:22:02;98219.84;;;7.59;76.24
75699;BME280;64313;51.018;13.742;2023-01-09T12:27:43;98231.25;;;7.67;75.70
75699;BME280;64313;51.018;13.742;2023-01-09T12:30:24;98209.75;;;7.68;75.58
75699;BME280;64313;51.018;13.742;2023-01-09T12:33:16;98224.44;;;7.71;76.21
75699;BME280;64313;51.018;13.742;2023-01-09T12:38:39;98231.56;;;7.77;74.92
75699;BME280;64313;51.018;13.742;2023-01-09T12:41:34;98235.66;;;7.79;74.32
75699;BME280;64313;51.018;13.742;2023-01-09T12:46:44;98243.19;;;7.83;74.83
75699;BME280;64313;51.018;13.742;2023-01-09T12:49:29;98245.84;;;7.83;74.56
75699;BME280;64313;51.018;13.742;2023-01-09T12:52:02;98245.03;;;7.82;74.05
75699;BME280;64313;51.018;13.742;2023-01-09T12:57:31;98250.34;;;7.82;74.37
75699;BME280;64313;51.018;13.742;2023-01-09T13:00:05;98259.34;;;7.81;74.58
75699;BME280;64313;51.018;13.742;2023-01-09T13:02:35;98252.41;;;7.80;74.67
75699;BME280;64313;51.018;13.742;2023-01-09T13:05:22;98270.00;;;7.81;74.71
75699;BME280;64313;51.018;13.742;2023-01-09T13:07:55;98275.09;;;7.83;74.97
75699;BME280;64313;51.018;13.742;2023-01-09T13:10:30;98269.59;;;7.84;75.41
75699;BME280;64313;51.018;13.742;2023-01-09T13:13:00;98270.19;;;7.86;74.76
75699;BME280;64313;51.018;13.742;2023-01-09T13:15:49;98261.38;;;7.86;74.87
75699;BME280;64313;51.018;13.742;2023-01-09T13:18:21;98270.19;;;7.86;74.68
75699;BME280;64313;51.018;13.742;2023-01-09T13:20:53;98269.13;;;7.87;74.51
75699;BME280;64313;51.018;13.742;2023-01-09T13:23:55;98282.66;;;7.86;74.75
75699;BME280;64313;51.018;13.742;2023-01-09T13:26:27;98272.84;;;7.86;74.43
75699;BME280;64313;51.018;13.742;2023-01-09T13:34:52;98267.94;;;7.83;74.86
75699;BME280;64313;51.018;13.742;2023-01-09T13:37:27;98278.56;;;7.83;74.56
75699;BME280;64313;51.018;13.742;2023-01-09T13:39:57;98292.91;;;7.82;74.69
75699;BME280;64313;51.018;13.742;2023-01-09T13:42:23;98291.28;;;7.81;74.62
75699;BME280;64313;51.018;13.742;2023-01-09T13:45:24;98292.53;;;7.78;74.53
75699;BME280;64313;51.018;13.742;2023-01-09T13:50:42;98299.50;;;7.79;74.50
75699;BME280;64313;51.018;13.742;2023-01-09T14:06:38;98326.53;;;7.76;73.84
75699;BME280;64313;51.018;13.742;2023-01-09T14:09:21;98337.97;;;7.77;73.67
75699;BME280;64313;51.018;13.742;2023-01-09T14:11:48;98341.66;;;7.76;73.95
75699;BME280;64313;51.018;13.742;2023-01-09T14:14:27;98343.50;;;7.75;73.29
75699;BME280;64313;51.018;13.742;2023-01-09T14:16:55;98347.41;;;7.73;73.92
75699;BME280;64313;51.018;13.742;2023-01-09T14:21:54;98348.44;;;7.72;73.89
75699;BME280;64313;51.018;13.742;2023-01-09T14:24:23;98344.75;;;7.73;74.25
75699;BME280;64313;51.018;13.742;2023-01-09T14:26:53;98351.91;;;7.72;72.37
75699;BME280;64313;51.018;13.742;2023-01-09T14:29:40;98353.53;;;7.73;73.82
75699;BME280;64313;51.018;13.742;2023-01-09T14:34:55;98359.69;;;7.74;72.96
75699;BME280;64313;51.018;13.742;2023-01-09T14:37:22;98362.34;;;7.74;73.23
75699;BME280;64313;51.018;13.742;2023-01-09T14:39:48;98365.41;;;7.71;71.29
75699;BME280;64313;51.018;13.742;2023-01-09T14:42:19;98366.25;;;7.71;72.79
75699;BME280;64313;51.018;13.742;2023-01-09T14:44:56;98365.41;;;7.71;72.04
75699;BME280;64313;51.018;13.742;2023-01-09T14:47:41;98376.03;;;7.71;72.52
75699;BME280;64313;51.018;13.742;2023-01-09T14:50:17;98376.03;;;7.71;72.31
75699;BME280;64313;51.018;13.742;2023-01-09T14:52:58;98377.09;;;7.70;72.11
75699;BME280;64313;51.018;13.742;2023-01-09T14:58:26;98380.19;;;7.67;71.38